Terminal Aerodrome Forecast
Issued by NWS

Home | Current Version | Previous Version | Text Only | Print | Product List | Glossary On
Versions: 1 2 3 4 5 6 7 8 9 10 11 12 13 14 15 16 17 18 19 20 21 22
000
FTUS43 KJKL 030802 AAA
TAFSJS
TAF AMD
KSJS 030802Z 0308/0406 30004KT 5SM -SHRA BR OVC003
     FM031000 31004KT P6SM VCSH BKN006
     FM031400 28006KT P6SM OVC015
     FM031700 28005KT P6SM OVC025
     FM032200 VRB03KT P6SM OVC035=

USA.gov is the U.S. government's official web portal to all federal, state and local government web resources and services.